sensor_id;sensor_type;location;lat;lon;timestamp;temperature;humidity
25556;DHT22;13447;57.174;-2.112;2023-05-10T00:01:00;10.30;1.00
25556;DHT22;13447;57.174;-2.112;2023-05-10T00:03:27;10.20;1.00
25556;DHT22;13447;57.174;-2.112;2023-05-10T00:05:54;10.20;1.00
25556;DHT22;13447;57.174;-2.112;2023-05-10T00:08:21;10.20;1.00
25556;DHT22;13447;57.174;-2.112;2023-05-10T00:10:47;10.20;1.00
25556;DHT22;13447;57.174;-2.112;2023-05-10T00:13:14;10.20;1.00
25556;DHT22;13447;57.174;-2.112;2023-05-10T00:15:41;10.20;1.00
25556;DHT22;13447;57.174;-2.112;2023-05-10T00:18:08;10.20;1.00
25556;DHT22;13447;57.174;-2.112;2023-05-10T00:20:35;10.20;1.00
25556;DHT22;13447;57.174;-2.112;2023-05-10T00:23:02;10.20;1.00
25556;DHT22;13447;57.174;-2.112;2023-05-10T00:25:28;10.20;1.00
25556;DHT22;13447;57.174;-2.112;2023-05-10T00:27:55;10.20;1.00
25556;DHT22;13447;57.174;-2.112;2023-05-10T00:30:23;10.20;1.00
25556;DHT22;13447;57.174;-2.112;2023-05-10T00:32:50;10.20;1.00
25556;DHT22;13447;57.174;-2.112;2023-05-10T00:35:18;10.10;1.00
25556;DHT22;13447;57.174;-2.112;2023-05-10T00:37:45;10.20;1.00
25556;DHT22;13447;57.174;-2.112;2023-05-10T00:40:11;10.10;1.00
25556;DHT22;13447;57.174;-2.112;2023-05-10T00:42:38;10.10;1.00
25556;DHT22;13447;57.174;-2.112;2023-05-10T00:45:05;10.10;1.00
25556;DHT22;13447;57.174;-2.112;2023-05-10T00:47:32;10.00;1.00
25556;DHT22;13447;57.174;-2.112;2023-05-10T00:49:59;10.00;1.00
25556;DHT22;13447;57.174;-2.112;2023-05-10T00:52:27;9.90;1.00
25556;DHT22;13447;57.174;-2.112;2023-05-10T00:54:54;9.90;1.00
25556;DHT22;13447;57.174;-2.112;2023-05-10T00:57:21;9.90;1.00
25556;DHT22;13447;57.174;-2.112;2023-05-10T00:59:48;10.00;1.00
25556;DHT22;13447;57.174;-2.112;2023-05-10T01:02:15;10.10;1.00
25556;DHT22;13447;57.174;-2.112;2023-05-10T01:04:42;10.10;1.00
25556;DHT22;13447;57.174;-2.112;2023-05-10T01:07:09;10.00;1.00
25556;DHT22;13447;57.174;-2.112;2023-05-10T01:09:37;10.00;1.00
25556;DHT22;13447;57.174;-2.112;2023-05-10T01:12:03;10.00;1.00
25556;DHT22;13447;57.174;-2.112;2023-05-10T01:14:33;10.00;1.00
25556;DHT22;13447;57.174;-2.112;2023-05-10T01:17:03;9.90;1.00
25556;DHT22;13447;57.174;-2.112;2023-05-10T01:19:30;10.00;1.00
25556;DHT22;13447;57.174;-2.112;2023-05-10T01:30:41;9.90;1.00
25556;DHT22;13447;57.174;-2.112;2023-05-10T01:35:37;9.90;1.00
25556;DHT22;13447;57.174;-2.112;2023-05-10T01:43:22;9.90;1.00
25556;DHT22;13447;57.174;-2.112;2023-05-10T01:46:09;9.90;1.00
25556;DHT22;13447;57.174;-2.112;2023-05-10T01:48:38;9.80;1.00
25556;DHT22;13447;57.174;-2.112;2023-05-10T01:51:06;9.80;1.00
25556;DHT22;13447;57.174;-2.112;2023-05-10T01:53:34;9.70;1.00
25556;DHT22;13447;57.174;-2.112;2023-05-10T01:56:02;9.70;1.00
25556;DHT22;13447;57.174;-2.112;2023-05-10T01:58:30;9.80;1.00
25556;DHT22;13447;57.174;-2.112;2023-05-10T02:00:58;9.70;1.00
25556;DHT22;13447;57.174;-2.112;2023-05-10T02:03:27;9.70;1.00
25556;DHT22;13447;57.174;-2.112;2023-05-10T02:05:54;9.80;1.00
25556;DHT22;13447;57.174;-2.112;2023-05-10T02:08:22;9.70;1.00
25556;DHT22;13447;57.174;-2.112;2023-05-10T02:10:50;9.70;1.00
25556;DHT22;13447;57.174;-2.112;2023-05-10T02:13:18;9.70;1.00
25556;DHT22;13447;57.174;-2.112;2023-05-10T02:15:49;9.70;1.00
25556;DHT22;13447;57.174;-2.112;2023-05-10T02:18:16;9.70;1.00
25556;DHT22;13447;57.174;-2.112;2023-05-10T02:20:45;9.70;1.00
25556;DHT22;13447;57.174;-2.112;2023-05-10T02:23:12;9.70;1.00
25556;DHT22;13447;57.174;-2.112;2023-05-10T02:25:40;9.60;1.00
25556;DHT22;13447;57.174;-2.112;2023-05-10T02:28:07;9.60;1.00
25556;DHT22;13447;57.174;-2.112;2023-05-10T02:30:35;9.60;1.00
25556;DHT22;13447;57.174;-2.112;2023-05-10T02:33:03;9.60;1.00
25556;DHT22;13447;57.174;-2.112;2023-05-10T02:35:30;9.60;1.00
25556;DHT22;13447;57.174;-2.112;2023-05-10T02:38:00;9.50;1.00
25556;DHT22;13447;57.174;-2.112;2023-05-10T02:40:27;9.50;1.00
25556;DHT22;13447;57.174;-2.112;2023-05-10T02:42:54;9.50;1.00
25556;DHT22;13447;57.174;-2.112;2023-05-10T02:45:23;9.40;1.00
25556;DHT22;13447;57.174;-2.112;2023-05-10T02:47:51;9.40;1.00
25556;DHT22;13447;57.174;-2.112;2023-05-10T02:50:18;9.30;1.00
25556;DHT22;13447;57.174;-2.112;2023-05-10T02:52:46;9.40;1.00
25556;DHT22;13447;57.174;-2.112;2023-05-10T02:55:15;9.30;1.00
25556;DHT22;13447;57.174;-2.112;2023-05-10T02:57:51;9.30;1.00
25556;DHT22;13447;57.174;-2.112;2023-05-10T03:00:18;9.30;1.00
25556;DHT22;13447;57.174;-2.112;2023-05-10T03:02:45;9.20;1.00
25556;DHT22;13447;57.174;-2.112;2023-05-10T03:05:12;9.30;1.00
25556;DHT22;13447;57.174;-2.112;2023-05-10T03:07:38;9.30;1.00
25556;DHT22;13447;57.174;-2.112;2023-05-10T08:10:38;9.50;1.00
25556;DHT22;13447;57.174;-2.112;2023-05-10T08:13:05;9.40;1.00
25556;DHT22;13447;57.174;-2.112;2023-05-10T08:15:31;9.30;1.00
25556;DHT22;13447;57.174;-2.112;2023-05-10T08:17:59;9.40;1.00
25556;DHT22;13447;57.174;-2.112;2023-05-10T08:20:26;9.40;1.00
25556;DHT22;13447;57.174;-2.112;2023-05-10T08:22:52;9.50;1.00
25556;DHT22;13447;57.174;-2.112;2023-05-10T08:25:19;9.40;1.00
25556;DHT22;13447;57.174;-2.112;2023-05-10T08:27:46;9.50;1.00
25556;DHT22;13447;57.174;-2.112;2023-05-10T08:30:13;9.50;1.00
25556;DHT22;13447;57.174;-2.112;2023-05-10T08:32:40;9.60;1.00
25556;DHT22;13447;57.174;-2.112;2023-05-10T08:35:07;9.60;1.00
25556;DHT22;13447;57.174;-2.112;2023-05-10T08:37:34;9.60;1.00
25556;DHT22;13447;57.174;-2.112;2023-05-10T08:40:00;9.60;1.00
25556;DHT22;13447;57.174;-2.112;2023-05-10T08:42:28;9.80;1.00
25556;DHT22;13447;57.174;-2.112;2023-05-10T08:44:55;9.80;1.00
25556;DHT22;13447;57.174;-2.112;2023-05-10T08:47:23;9.80;1.00
25556;DHT22;13447;57.174;-2.112;2023-05-10T08:49:50;9.70;1.00
25556;DHT22;13447;57.174;-2.112;2023-05-10T08:52:18;9.70;1.00
25556;DHT22;13447;57.174;-2.112;2023-05-10T08:54:45;9.80;1.00
25556;DHT22;13447;57.174;-2.112;2023-05-10T08:57:12;9.80;1.00
25556;DHT22;13447;57.174;-2.112;2023-05-10T08:59:38;9.80;1.00
25556;DHT22;13447;57.174;-2.112;2023-05-10T09:02:06;9.90;1.00
25556;DHT22;13447;57.174;-2.112;2023-05-10T09:04:36;9.90;1.00
25556;DHT22;13447;57.174;-2.112;2023-05-10T09:07:03;9.80;1.00
25556;DHT22;13447;57.174;-2.112;2023-05-10T09:09:30;9.80;1.00
25556;DHT22;13447;57.174;-2.112;2023-05-10T09:11:57;9.70;1.00
25556;DHT22;13447;57.174;-2.112;2023-05-10T09:14:24;9.80;1.00
25556;DHT22;13447;57.174;-2.112;2023-05-10T09:16:51;9.80;1.00
25556;DHT22;13447;57.174;-2.112;2023-05-10T09:19:20;10.00;1.00
25556;DHT22;13447;57.174;-2.112;2023-05-10T09:21:47;9.90;1.00
25556;DHT22;13447;57.174;-2.112;2023-05-10T09:24:15;10.00;1.00
25556;DHT22;13447;57.174;-2.112;2023-05-10T09:26:45;10.10;1.00
25556;DHT22;13447;57.174;-2.112;2023-05-10T09:29:14;10.20;1.00
25556;DHT22;13447;57.174;-2.112;2023-05-10T09:31:49;10.10;1.00
25556;DHT22;13447;57.174;-2.112;2023-05-10T09:34:30;10.20;1.00
25556;DHT22;13447;57.174;-2.112;2023-05-10T09:37:01;10.20;1.00
25556;DHT22;13447;57.174;-2.112;2023-05-10T09:39:36;10.20;1.00
25556;DHT22;13447;57.174;-2.112;2023-05-10T09:42:04;10.10;1.00
25556;DHT22;13447;57.174;-2.112;2023-05-10T09:44:32;10.10;1.00
25556;DHT22;13447;57.174;-2.112;2023-05-10T09:47:00;10.10;1.00
25556;DHT22;13447;57.174;-2.112;2023-05-10T09:49:26;10.10;1.00
25556;DHT22;13447;57.174;-2.112;2023-05-10T09:52:03;10.20;1.00
25556;DHT22;13447;57.174;-2.112;2023-05-10T09:54:30;10.20;1.00
25556;DHT22;13447;57.174;-2.112;2023-05-10T09:56:58;10.30;1.00
25556;DHT22;13447;57.174;-2.112;2023-05-10T09:59:25;10.40;1.00
25556;DHT22;13447;57.174;-2.112;2023-05-10T10:01:55;10.40;1.00
25556;DHT22;13447;57.174;-2.112;2023-05-10T10:04:22;10.50;1.00
25556;DHT22;13447;57.174;-2.112;2023-05-10T10:07:02;10.50;1.00
25556;DHT22;13447;57.174;-2.112;2023-05-10T10:09:30;10.30;1.00
25556;DHT22;13447;57.174;-2.112;2023-05-10T10:11:57;10.40;1.00
25556;DHT22;13447;57.174;-2.112;2023-05-10T10:14:25;10.40;1.00
25556;DHT22;13447;57.174;-2.112;2023-05-10T10:16:52;10.60;1.00
25556;DHT22;13447;57.174;-2.112;2023-05-10T10:19:34;10.70;1.00
25556;DHT22;13447;57.174;-2.112;2023-05-10T10:22:02;10.90;1.00
25556;DHT22;13447;57.174;-2.112;2023-05-10T10:24:29;10.90;1.00
25556;DHT22;13447;57.174;-2.112;2023-05-10T10:26:57;11.00;1.00
25556;DHT22;13447;57.174;-2.112;2023-05-10T10:30:03;10.90;1.00
25556;DHT22;13447;57.174;-2.112;2023-05-10T10:32:27;10.90;1.00
25556;DHT22;13447;57.174;-2.112;2023-05-10T10:34:56;10.90;1.00
25556;DHT22;13447;57.174;-2.112;2023-05-10T10:37:23;11.00;1.00
25556;DHT22;13447;57.174;-2.112;2023-05-10T10:42:46;11.30;1.00
25556;DHT22;13447;57.174;-2.112;2023-05-10T10:45:13;11.30;1.00
25556;DHT22;13447;57.174;-2.112;2023-05-10T10:47:41;11.20;1.00
25556;DHT22;13447;57.174;-2.112;2023-05-10T10:50:09;11.20;1.00
25556;DHT22;13447;57.174;-2.112;2023-05-10T10:52:39;11.20;1.00
25556;DHT22;13447;57.174;-2.112;2023-05-10T11:00:18;11.50;1.00
25556;DHT22;13447;57.174;-2.112;2023-05-10T11:02:50;11.60;1.00
25556;DHT22;13447;57.174;-2.112;2023-05-10T11:07:55;11.90;1.00
25556;DHT22;13447;57.174;-2.112;2023-05-10T11:10:22;12.00;1.00
25556;DHT22;13447;57.174;-2.112;2023-05-10T11:12:59;11.80;1.00
25556;DHT22;13447;57.174;-2.112;2023-05-10T11:15:36;11.90;1.00
25556;DHT22;13447;57.174;-2.112;2023-05-10T11:20:56;12.80;1.00
25556;DHT22;13447;57.174;-2.112;2023-05-10T11:23:23;13.10;99.90
25556;DHT22;13447;57.174;-2.112;2023-05-10T11:25:50;13.60;99.90
25556;DHT22;13447;57.174;-2.112;2023-05-10T11:28:17;13.90;99.90
25556;DHT22;13447;57.174;-2.112;2023-05-10T11:30:44;14.30;99.90
25556;DHT22;13447;57.174;-2.112;2023-05-10T11:33:14;14.40;99.90
25556;DHT22;13447;57.174;-2.112;2023-05-10T11:35:41;14.70;99.90
25556;DHT22;13447;57.174;-2.112;2023-05-10T11:40:36;15.00;99.90
25556;DHT22;13447;57.174;-2.112;2023-05-10T11:43:04;14.90;99.90
25556;DHT22;13447;57.174;-2.112;2023-05-10T11:45:34;14.90;99.90
25556;DHT22;13447;57.174;-2.112;2023-05-10T11:48:01;15.10;99.90
25556;DHT22;13447;57.174;-2.112;2023-05-10T11:50:29;15.60;99.90
25556;DHT22;13447;57.174;-2.112;2023-05-10T11:52:56;15.50;99.90
25556;DHT22;13447;57.174;-2.112;2023-05-10T11:55:23;15.50;99.90
25556;DHT22;13447;57.174;-2.112;2023-05-10T11:57:53;15.20;99.90
25556;DHT22;13447;57.174;-2.112;2023-05-10T12:00:20;15.10;99.90
25556;DHT22;13447;57.174;-2.112;2023-05-10T12:02:48;15.10;99.90
25556;DHT22;13447;57.174;-2.112;2023-05-10T12:05:15;15.50;99.90
25556;DHT22;13447;57.174;-2.112;2023-05-10T12:07:42;15.50;99.90
25556;DHT22;13447;57.174;-2.112;2023-05-10T12:10:10;15.90;99.90
25556;DHT22;13447;57.174;-2.112;2023-05-10T12:12:37;16.40;99.90
25556;DHT22;13447;57.174;-2.112;2023-05-10T12:15:05;16.70;99.90
25556;DHT22;13447;57.174;-2.112;2023-05-10T12:17:32;17.10;99.90
25556;DHT22;13447;57.174;-2.112;2023-05-10T12:20:12;16.70;58.80
25556;DHT22;13447;57.174;-2.112;2023-05-10T12:22:41;16.20;47.00
25556;DHT22;13447;57.174;-2.112;2023-05-10T12:25:08;15.40;99.90
25556;DHT22;13447;57.174;-2.112;2023-05-10T12:27:35;15.10;99.90
25556;DHT22;13447;57.174;-2.112;2023-05-10T12:30:02;15.20;99.90
25556;DHT22;13447;57.174;-2.112;2023-05-10T12:32:41;15.80;99.90
25556;DHT22;13447;57.174;-2.112;2023-05-10T12:35:08;16.00;98.10
25556;DHT22;13447;57.174;-2.112;2023-05-10T12:37:35;16.60;65.00
25556;DHT22;13447;57.174;-2.112;2023-05-10T12:40:08;16.90;1.00
25556;DHT22;13447;57.174;-2.112;2023-05-10T12:42:36;16.90;7.20
25556;DHT22;13447;57.174;-2.112;2023-05-10T12:45:03;16.70;1.00
25556;DHT22;13447;57.174;-2.112;2023-05-10T12:47:31;16.90;1.00
25556;DHT22;13447;57.174;-2.112;2023-05-10T12:49:58;16.80;15.50
25556;DHT22;13447;57.174;-2.112;2023-05-10T12:52:25;17.20;1.00
25556;DHT22;13447;57.174;-2.112;2023-05-10T12:54:52;17.20;1.00
25556;DHT22;13447;57.174;-2.112;2023-05-10T12:57:20;16.70;1.00
25556;DHT22;13447;57.174;-2.112;2023-05-10T12:59:46;16.30;1.00
25556;DHT22;13447;57.174;-2.112;2023-05-10T13:02:13;15.90;99.90
25556;DHT22;13447;57.174;-2.112;2023-05-10T13:04:41;16.20;69.50
25556;DHT22;13447;57.174;-2.112;2023-05-10T13:07:08;16.30;99.90
25556;DHT22;13447;57.174;-2.112;2023-05-10T13:09:35;16.30;52.50
25556;DHT22;13447;57.174;-2.112;2023-05-10T13:12:02;16.50;1.00
25556;DHT22;13447;57.174;-2.112;2023-05-10T13:14:29;15.80;77.80
25556;DHT22;13447;57.174;-2.112;2023-05-10T13:16:56;16.00;56.30
25556;DHT22;13447;57.174;-2.112;2023-05-10T13:19:22;15.80;49.50
25556;DHT22;13447;57.174;-2.112;2023-05-10T13:21:49;15.50;99.90
25556;DHT22;13447;57.174;-2.112;2023-05-10T13:24:16;15.20;99.90
25556;DHT22;13447;57.174;-2.112;2023-05-10T13:26:44;15.40;99.90
25556;DHT22;13447;57.174;-2.112;2023-05-10T13:29:10;15.90;55.00
25556;DHT22;13447;57.174;-2.112;2023-05-10T13:31:37;15.10;99.90
25556;DHT22;13447;57.174;-2.112;2023-05-10T13:34:04;14.70;99.90
25556;DHT22;13447;57.174;-2.112;2023-05-10T13:41:29;13.70;99.90
25556;DHT22;13447;57.174;-2.112;2023-05-10T13:43:55;13.70;99.90
25556;DHT22;13447;57.174;-2.112;2023-05-10T13:46:22;13.70;99.90
25556;DHT22;13447;57.174;-2.112;2023-05-10T13:48:49;13.50;99.90
25556;DHT22;13447;57.174;-2.112;2023-05-10T13:51:16;13.30;99.90
25556;DHT22;13447;57.174;-2.112;2023-05-10T13:53:43;13.10;99.90
25556;DHT22;13447;57.174;-2.112;2023-05-10T13:56:09;12.90;99.90
25556;DHT22;13447;57.174;-2.112;2023-05-10T13:58:36;13.00;99.90
25556;DHT22;13447;57.174;-2.112;2023-05-10T14:01:03;13.00;99.90
25556;DHT22;13447;57.174;-2.112;2023-05-10T14:03:31;12.90;99.90
25556;DHT22;13447;57.174;-2.112;2023-05-10T14:05:59;12.90;99.90
25556;DHT22;13447;57.174;-2.112;2023-05-10T14:08:26;13.00;99.90
25556;DHT22;13447;57.174;-2.112;2023-05-10T14:10:53;12.80;99.90
25556;DHT22;13447;57.174;-2.112;2023-05-10T14:13:22;12.70;99.90
25556;DHT22;13447;57.174;-2.112;2023-05-10T14:15:50;12.60;99.90
25556;DHT22;13447;57.174;-2.112;2023-05-10T14:18:17;12.40;99.90
25556;DHT22;13447;57.174;-2.112;2023-05-10T14:20:44;12.30;99.90
25556;DHT22;13447;57.174;-2.112;2023-05-10T14:23:10;12.10;99.90
25556;DHT22;13447;57.174;-2.112;2023-05-10T14:25:39;12.10;99.90
25556;DHT22;13447;57.174;-2.112;2023-05-10T14:28:06;11.90;99.90
25556;DHT22;13447;57.174;-2.112;2023-05-10T14:30:33;11.90;99.90
25556;DHT22;13447;57.174;-2.112;2023-05-10T14:33:01;11.90;99.90
25556;DHT22;13447;57.174;-2.112;2023-05-10T14:35:28;11.90;99.90
25556;DHT22;13447;57.174;-2.112;2023-05-10T14:37:57;11.80;99.90
25556;DHT22;13447;57.174;-2.112;2023-05-10T14:40:25;11.60;99.90
25556;DHT22;13447;57.174;-2.112;2023-05-10T14:42:52;11.50;99.90
25556;DHT22;13447;57.174;-2.112;2023-05-10T14:45:20;11.40;99.90
25556;DHT22;13447;57.174;-2.112;2023-05-10T14:47:46;11.50;99.90
25556;DHT22;13447;57.174;-2.112;2023-05-10T14:50:14;11.50;99.90
25556;DHT22;13447;57.174;-2.112;2023-05-10T14:53:00;11.50;99.90
25556;DHT22;13447;57.174;-2.112;2023-05-10T14:55:27;11.70;99.90
25556;DHT22;13447;57.174;-2.112;2023-05-10T14:57:54;11.80;99.90
25556;DHT22;13447;57.174;-2.112;2023-05-10T15:00:21;11.90;99.90
25556;DHT22;13447;57.174;-2.112;2023-05-10T15:02:49;12.00;99.90
25556;DHT22;13447;57.174;-2.112;2023-05-10T15:05:16;12.10;99.90
25556;DHT22;13447;57.174;-2.112;2023-05-10T15:07:44;11.90;99.90
25556;DHT22;13447;57.174;-2.112;2023-05-10T15:10:11;11.70;99.90
25556;DHT22;13447;57.174;-2.112;2023-05-10T15:12:38;11.80;99.90
25556;DHT22;13447;57.174;-2.112;2023-05-10T15:15:05;11.90;99.90
25556;DHT22;13447;57.174;-2.112;2023-05-10T15:17:32;11.90;99.90
25556;DHT22;13447;57.174;-2.112;2023-05-10T15:19:59;11.80;99.90
25556;DHT22;13447;57.174;-2.112;2023-05-10T15:22:26;11.70;99.90
25556;DHT22;13447;57.174;-2.112;2023-05-10T15:24:54;11.80;99.90
25556;DHT22;13447;57.174;-2.112;2023-05-10T15:27:21;11.80;99.90
25556;DHT22;13447;57.174;-2.112;2023-05-10T15:29:48;11.80;99.90
25556;DHT22;13447;57.174;-2.112;2023-05-10T15:32:15;11.70;99.90
25556;DHT22;13447;57.174;-2.112;2023-05-10T15:34:41;11.70;99.90
25556;DHT22;13447;57.174;-2.112;2023-05-10T15:37:08;11.70;99.90
25556;DHT22;13447;57.174;-2.112;2023-05-10T15:39:36;11.80;99.90
25556;DHT22;13447;57.174;-2.112;2023-05-10T18:42:50;12.10;99.90
25556;DHT22;13447;57.174;-2.112;2023-05-10T18:45:18;12.20;99.90
25556;DHT22;13447;57.174;-2.112;2023-05-10T18:47:45;12.20;99.90
25556;DHT22;13447;57.174;-2.112;2023-05-10T18:50:13;12.20;99.90
25556;DHT22;13447;57.174;-2.112;2023-05-10T18:52:43;12.20;99.90
25556;DHT22;13447;57.174;-2.112;2023-05-10T18:55:12;12.20;99.90
25556;DHT22;13447;57.174;-2.112;2023-05-10T18:57:40;12.20;99.90
25556;DHT22;13447;57.174;-2.112;2023-05-10T19:00:08;12.10;99.90
25556;DHT22;13447;57.174;-2.112;2023-05-10T19:02:39;12.10;99.90
25556;DHT22;13447;57.174;-2.112;2023-05-10T19:05:06;12.10;99.90
25556;DHT22;13447;57.174;-2.112;2023-05-10T19:07:34;12.00;99.90
25556;DHT22;13447;57.174;-2.112;2023-05-10T19:10:02;12.00;1.00
25556;DHT22;13447;57.174;-2.112;2023-05-10T19:12:32;12.00;1.00
25556;DHT22;13447;57.174;-2.112;2023-05-10T19:15:00;12.00;99.90
25556;DHT22;13447;57.174;-2.112;2023-05-10T19:17:27;11.90;1.00
25556;DHT22;13447;57.174;-2.112;2023-05-10T19:19:59;11.90;1.00
25556;DHT22;13447;57.174;-2.112;2023-05-10T19:22:29;11.90;1.00
25556;DHT22;13447;57.174;-2.112;2023-05-10T19:25:18;11.80;1.00
25556;DHT22;13447;57.174;-2.112;2023-05-10T19:27:47;11.90;1.00
25556;DHT22;13447;57.174;-2.112;2023-05-10T19:30:16;11.80;1.00
25556;DHT22;13447;57.174;-2.112;2023-05-10T19:32:43;11.80;1.00
25556;DHT22;13447;57.174;-2.112;2023-05-10T19:35:11;11.70;1.00
25556;DHT22;13447;57.174;-2.112;2023-05-10T19:37:39;11.70;1.00
25556;DHT22;13447;57.174;-2.112;2023-05-10T19:40:13;11.60;1.00
25556;DHT22;13447;57.174;-2.112;2023-05-10T19:42:44;11.60;1.00
25556;DHT22;13447;57.174;-2.112;2023-05-10T19:45:12;11.60;1.00
25556;DHT22;13447;57.174;-2.112;2023-05-10T19:47:42;11.60;1.00
25556;DHT22;13447;57.174;-2.112;2023-05-10T19:50:12;11.40;1.00
25556;DHT22;13447;57.174;-2.112;2023-05-10T19:52:40;11.30;1.00
25556;DHT22;13447;57.174;-2.112;2023-05-10T19:55:08;11.30;1.00
25556;DHT22;13447;57.174;-2.112;2023-05-10T19:57:36;11.30;1.00
25556;DHT22;13447;57.174;-2.112;2023-05-10T20:00:04;11.30;1.00
25556;DHT22;13447;57.174;-2.112;2023-05-10T20:02:35;11.20;1.00
25556;DHT22;13447;57.174;-2.112;2023-05-10T20:05:03;11.20;1.00
25556;DHT22;13447;57.174;-2.112;2023-05-10T20:07:30;11.10;1.00
25556;DHT22;13447;57.174;-2.112;2023-05-10T20:09:58;11.00;1.00
25556;DHT22;13447;57.174;-2.112;2023-05-10T20:12:25;11.00;1.00
25556;DHT22;13447;57.174;-2.112;2023-05-10T20:14:55;11.00;1.00
25556;DHT22;13447;57.174;-2.112;2023-05-10T20:17:22;11.00;1.00
25556;DHT22;13447;57.174;-2.112;2023-05-10T20:19:51;11.00;1.00
25556;DHT22;13447;57.174;-2.112;2023-05-10T20:22:18;10.90;1.00
25556;DHT22;13447;57.174;-2.112;2023-05-10T20:24:46;10.90;1.00
25556;DHT22;13447;57.174;-2.112;2023-05-10T20:27:14;10.80;1.00
25556;DHT22;13447;57.174;-2.112;2023-05-10T20:29:41;10.90;1.00
25556;DHT22;13447;57.174;-2.112;2023-05-10T20:32:09;10.90;1.00
25556;DHT22;13447;57.174;-2.112;2023-05-10T20:34:36;10.90;1.00
25556;DHT22;13447;57.174;-2.112;2023-05-10T20:37:04;10.90;1.00
25556;DHT22;13447;57.174;-2.112;2023-05-10T20:39:31;10.90;1.00
25556;DHT22;13447;57.174;-2.112;2023-05-10T20:41:59;11.00;1.00
25556;DHT22;13447;57.174;-2.112;2023-05-10T20:44:28;11.00;1.00
25556;DHT22;13447;57.174;-2.112;2023-05-10T20:46:56;11.00;1.00
25556;DHT22;13447;57.174;-2.112;2023-05-10T20:49:23;11.00;1.00
25556;DHT22;13447;57.174;-2.112;2023-05-10T20:51:51;11.10;1.00
25556;DHT22;13447;57.174;-2.112;2023-05-10T20:54:18;11.10;1.00
25556;DHT22;13447;57.174;-2.112;2023-05-10T20:56:46;11.10;1.00
25556;DHT22;13447;57.174;-2.112;2023-05-10T20:59:14;11.10;1.00
25556;DHT22;13447;57.174;-2.112;2023-05-10T21:01:41;11.20;1.00
25556;DHT22;13447;57.174;-2.112;2023-05-10T21:04:08;11.20;1.00
25556;DHT22;13447;57.174;-2.112;2023-05-10T21:06:36;11.20;1.00
25556;DHT22;13447;57.174;-2.112;2023-05-10T21:09:03;11.20;1.00
25556;DHT22;13447;57.174;-2.112;2023-05-10T21:11:32;11.10;1.00
25556;DHT22;13447;57.174;-2.112;2023-05-10T21:14:01;11.10;1.00
25556;DHT22;13447;57.174;-2.112;2023-05-10T21:16:29;11.10;1.00
25556;DHT22;13447;57.174;-2.112;2023-05-10T21:18:57;11.10;1.00
25556;DHT22;13447;57.174;-2.112;2023-05-10T21:21:24;11.20;1.00
25556;DHT22;13447;57.174;-2.112;2023-05-10T21:23:52;11.20;1.00
25556;DHT22;13447;57.174;-2.112;2023-05-10T21:26:19;11.10;1.00
25556;DHT22;13447;57.174;-2.112;2023-05-10T21:28:47;11.20;1.00
25556;DHT22;13447;57.174;-2.112;2023-05-10T21:31:14;11.10;1.00
25556;DHT22;13447;57.174;-2.112;2023-05-10T21:33:41;11.10;1.00
25556;DHT22;13447;57.174;-2.112;2023-05-10T21:36:09;11.10;1.00
25556;DHT22;13447;57.174;-2.112;2023-05-10T21:38:35;11.20;1.00
25556;DHT22;13447;57.174;-2.112;2023-05-10T21:41:05;11.20;1.00
25556;DHT22;13447;57.174;-2.112;2023-05-10T21:43:32;11.20;1.00
25556;DHT22;13447;57.174;-2.112;2023-05-10T21:45:59;11.20;1.00
25556;DHT22;13447;57.174;-2.112;2023-05-10T21:48:26;11.10;1.00
25556;DHT22;13447;57.174;-2.112;2023-05-10T21:50:53;11.10;1.00
25556;DHT22;13447;57.174;-2.112;2023-05-10T21:53:20;11.10;1.00
25556;DHT22;13447;57.174;-2.112;2023-05-10T21:55:47;11.00;1.00
25556;DHT22;13447;57.174;-2.112;2023-05-10T21:58:14;11.00;1.00
25556;DHT22;13447;57.174;-2.112;2023-05-10T22:00:41;11.00;1.00
25556;DHT22;13447;57.174;-2.112;2023-05-10T22:03:08;10.90;1.00
25556;DHT22;13447;57.174;-2.112;2023-05-10T22:05:35;10.80;1.00
25556;DHT22;13447;57.174;-2.112;2023-05-10T22:08:02;10.80;1.00
25556;DHT22;13447;57.174;-2.112;2023-05-10T22:10:29;10.80;1.00
25556;DHT22;13447;57.174;-2.112;2023-05-10T22:12:56;10.70;1.00
25556;DHT22;13447;57.174;-2.112;2023-05-10T22:15:25;10.70;1.00
25556;DHT22;13447;57.174;-2.112;2023-05-10T22:17:52;10.60;1.00
25556;DHT22;13447;57.174;-2.112;2023-05-10T22:20:19;10.60;1.00
25556;DHT22;13447;57.174;-2.112;2023-05-10T22:22:46;10.60;1.00
25556;DHT22;13447;57.174;-2.112;2023-05-10T22:25:13;10.70;1.00
25556;DHT22;13447;57.174;-2.112;2023-05-10T22:27:40;10.60;1.00
25556;DHT22;13447;57.174;-2.112;2023-05-10T22:30:07;10.60;1.00
25556;DHT22;13447;57.174;-2.112;2023-05-10T22:32:34;10.60;1.00
25556;DHT22;13447;57.174;-2.112;2023-05-10T22:35:01;10.60;1.00
25556;DHT22;13447;57.174;-2.112;2023-05-10T22:37:28;10.60;1.00
25556;DHT22;13447;57.174;-2.112;2023-05-10T22:39:54;10.60;1.00
25556;DHT22;13447;57.174;-2.112;2023-05-10T22:42:21;10.60;1.00
25556;DHT22;13447;57.174;-2.112;2023-05-10T22:44:48;10.60;1.00
25556;DHT22;13447;57.174;-2.112;2023-05-10T22:47:15;10.60;1.00
25556;DHT22;13447;57.174;-2.112;2023-05-10T22:49:42;10.70;1.00
25556;DHT22;13447;57.174;-2.112;2023-05-10T22:52:09;10.60;1.00
25556;DHT22;13447;57.174;-2.112;2023-05-10T22:54:36;10.70;1.00
25556;DHT22;13447;57.174;-2.112;2023-05-10T22:57:03;10.70;1.00
25556;DHT22;13447;57.174;-2.112;2023-05-10T22:59:31;10.70;1.00
25556;DHT22;13447;57.174;-2.112;2023-05-10T23:01:57;10.70;1.00
25556;DHT22;13447;57.174;-2.112;2023-05-10T23:04:24;10.70;1.00
25556;DHT22;13447;57.174;-2.112;2023-05-10T23:06:51;10.60;1.00
25556;DHT22;13447;57.174;-2.112;2023-05-10T23:09:19;10.60;1.00
25556;DHT22;13447;57.174;-2.112;2023-05-10T23:11:45;10.50;1.00
25556;DHT22;13447;57.174;-2.112;2023-05-10T23:14:12;10.50;1.00
25556;DHT22;13447;57.174;-2.112;2023-05-10T23:16:39;10.50;1.00
25556;DHT22;13447;57.174;-2.112;2023-05-10T23:19:06;10.50;1.00
25556;DHT22;13447;57.174;-2.112;2023-05-10T23:21:33;10.50;1.00
25556;DHT22;13447;57.174;-2.112;2023-05-10T23:24:00;10.40;1.00
25556;DHT22;13447;57.174;-2.112;2023-05-10T23:26:27;10.40;1.00
25556;DHT22;13447;57.174;-2.112;2023-05-10T23:28:54;10.40;1.00
25556;DHT22;13447;57.174;-2.112;2023-05-10T23:31:21;10.40;1.00
25556;DHT22;13447;57.174;-2.112;2023-05-10T23:33:48;10.40;1.00
25556;DHT22;13447;57.174;-2.112;2023-05-10T23:36:14;10.30;1.00
25556;DHT22;13447;57.174;-2.112;2023-05-10T23:38:41;10.30;1.00
25556;DHT22;13447;57.174;-2.112;2023-05-10T23:41:08;10.30;1.00
25556;DHT22;13447;57.174;-2.112;2023-05-10T23:43:35;10.30;1.00
25556;DHT22;13447;57.174;-2.112;2023-05-10T23:46:02;10.30;1.00
25556;DHT22;13447;57.174;-2.112;2023-05-10T23:48:30;10.40;1.00
25556;DHT22;13447;57.174;-2.112;2023-05-10T23:50:58;10.40;1.00
25556;DHT22;13447;57.174;-2.112;2023-05-10T23:53:24;10.50;1.00
25556;DHT22;13447;57.174;-2.112;2023-05-10T23:55:52;10.50;1.00
25556;DHT22;13447;57.174;-2.112;2023-05-10T23:58:19;10.40;1.00
